Terminal Aerodrome Forecast
Issued by NWS

Home | Current Version | Previous Version | Text Only | Print | Product List | Glossary On
Versions: 1 2 3 4 5 6 7 8 9 10 11 12 13 14 15
000
FTAK31 PAJN 260500
TAFAKT
TAF
PAKT 260538Z 2606/2706 13012KT P6SM BKN030 OVC070
     FM260900 15015G25KT P6SM VCSH BKN030 OVC060 WS020/15025KT
     FM261400 15020G30KT 6SM -RA BR SCT015 BKN030 OVC040
      WS020/14040KT
     FM261700 15015G25KT 4SM RA VCFG SCT015 OVC030 WS020/14045KT
     FM270000 15015G25KT 6SM -RA SCT015 OVC030 WS020/14030KT
     FM270300 15010G20KT 6SM -RA SCT010 OVC030
      AMD LTD TO CLD VIS AND WIND 2606/2615=

USA.gov is the U.S. government's official web portal to all federal, state and local government web resources and services.